createdAt,value
2022-11-02T00:01:45.335Z,15.90
2022-11-02T00:04:12.433Z,15.90
2022-11-02T00:06:41.716Z,15.80
2022-11-02T00:09:08.892Z,15.80
2022-11-02T00:11:37.928Z,15.80
2022-11-02T00:14:05.124Z,15.80
2022-11-02T00:16:33.508Z,15.80
2022-11-02T00:19:03.840Z,15.90
2022-11-02T00:21:30.858Z,15.90
2022-11-02T00:23:59.049Z,15.90
2022-11-02T00:26:28.094Z,15.90
2022-11-02T00:28:55.763Z,16.00
2022-11-02T00:31:22.849Z,16.00
2022-11-02T00:33:50.356Z,16.00
2022-11-02T00:36:17.505Z,15.90
2022-11-02T00:38:44.510Z,15.90
2022-11-02T00:41:12.944Z,16.00
2022-11-02T00:43:39.926Z,15.90
2022-11-02T00:46:06.954Z,15.80
2022-11-02T00:48:34.123Z,15.90
2022-11-02T00:51:01.756Z,15.90
2022-11-02T00:53:30.137Z,16.00
2022-11-02T00:55:57.115Z,15.90
2022-11-02T00:58:24.471Z,15.90
2022-11-02T01:00:51.556Z,15.90
2022-11-02T01:03:18.847Z,15.90
2022-11-02T01:05:46.040Z,15.90
2022-11-02T01:08:13.234Z,15.90
2022-11-02T01:10:42.807Z,15.90
2022-11-02T01:13:14.118Z,15.90
2022-11-02T01:15:41.206Z,16.00
2022-11-02T01:18:08.135Z,15.90
2022-11-02T01:20:35.306Z,15.90
2022-11-02T01:23:02.486Z,15.90
2022-11-02T01:25:29.502Z,15.80
2022-11-02T01:27:56.649Z,15.80
2022-11-02T01:30:23.676Z,15.70
2022-11-02T01:32:50.768Z,15.60
2022-11-02T01:35:17.856Z,15.60
2022-11-02T01:37:44.901Z,15.60
2022-11-02T01:40:12.482Z,15.50
2022-11-02T01:42:39.591Z,15.50
2022-11-02T01:45:06.861Z,15.60
2022-11-02T01:47:38.621Z,15.70
2022-11-02T01:50:13.279Z,15.70
2022-11-02T01:52:41.539Z,15.60
2022-11-02T01:55:16.649Z,15.70
2022-11-02T01:57:50.324Z,15.70
2022-11-02T02:00:20.372Z,15.70
2022-11-02T02:03:05.662Z,15.70
2022-11-02T02:05:36.160Z,15.70
2022-11-02T02:08:04.415Z,15.70
2022-11-02T02:10:32.359Z,15.60
2022-11-02T02:12:59.447Z,15.60
2022-11-02T02:15:54.601Z,15.70
2022-11-02T02:19:02.358Z,15.70
2022-11-02T02:21:47.327Z,15.60
2022-11-02T02:24:44.992Z,15.50
2022-11-02T02:27:32.051Z,15.40
2022-11-02T02:30:09.821Z,15.40
2022-11-02T02:32:49.065Z,15.30
2022-11-02T02:35:27.154Z,15.30
2022-11-02T02:38:14.641Z,15.30
2022-11-02T02:40:49.832Z,15.40
2022-11-02T02:43:21.282Z,15.40
2022-11-02T02:45:55.473Z,15.40
2022-11-02T02:48:25.566Z,15.40
2022-11-02T02:51:07.513Z,15.30
2022-11-02T02:53:41.736Z,15.20
2022-11-02T02:56:10.987Z,15.20
2022-11-02T02:58:50.635Z,15.20
2022-11-02T03:01:19.908Z,15.20
2022-11-02T03:03:47.617Z,15.10
2022-11-02T03:06:20.693Z,15.10
2022-11-02T03:09:09.850Z,15.10
2022-11-02T03:11:48.388Z,15.10
2022-11-02T03:14:48.125Z,15.00
2022-11-02T03:17:24.906Z,15.00
2022-11-02T03:20:11.704Z,15.00
2022-11-02T03:23:10.368Z,14.90
2022-11-02T03:25:57.650Z,14.90
2022-11-02T03:28:49.294Z,14.80
2022-11-02T03:31:28.393Z,14.80
2022-11-02T03:34:16.790Z,14.80
2022-11-02T03:36:49.672Z,14.90
2022-11-02T03:39:46.400Z,14.80
2022-11-02T03:42:19.177Z,14.80
2022-11-02T03:44:53.102Z,14.80
2022-11-02T03:47:20.800Z,14.80
2022-11-02T03:49:50.486Z,14.70
2022-11-02T03:52:23.530Z,14.70
2022-11-02T03:55:02.700Z,14.60
2022-11-02T03:57:46.933Z,14.60
2022-11-02T04:00:22.248Z,14.70
2022-11-02T04:03:00.385Z,14.70
2022-11-02T04:05:37.060Z,14.70
2022-11-02T04:08:39.125Z,14.70
2022-11-02T04:11:28.262Z,14.70
2022-11-02T04:14:18.966Z,14.70
2022-11-02T04:16:46.328Z,14.70
2022-11-02T04:19:29.792Z,14.60
2022-11-02T04:22:25.189Z,14.70
2022-11-02T04:25:15.883Z,14.70
2022-11-02T04:27:51.134Z,14.60
2022-11-02T04:30:24.348Z,14.60
2022-11-02T04:33:13.188Z,14.60
2022-11-02T04:35:52.035Z,14.60
2022-11-02T04:38:38.651Z,14.50
2022-11-02T04:41:25.477Z,14.60
2022-11-02T04:43:55.679Z,14.50
2022-11-02T04:46:24.599Z,14.50
2022-11-02T04:48:52.272Z,14.50
2022-11-02T04:51:20.631Z,14.50
2022-11-02T04:53:49.359Z,14.60
2022-11-02T04:56:17.726Z,14.50
2022-11-02T04:58:49.534Z,14.60
2022-11-02T05:01:17.586Z,14.60
2022-11-02T05:03:47.603Z,14.70
2022-11-02T05:06:15.850Z,14.70
2022-11-02T05:08:43.089Z,14.70
2022-11-02T05:11:11.803Z,14.70
2022-11-02T05:13:40.616Z,14.60
2022-11-02T05:16:11.571Z,14.60
2022-11-02T05:18:39.310Z,14.60
2022-11-02T05:21:06.418Z,14.50
2022-11-02T05:23:33.458Z,14.40
2022-11-02T05:26:07.124Z,14.40
2022-11-02T05:28:35.324Z,14.40
2022-11-02T05:31:04.638Z,14.40
2022-11-02T05:33:34.210Z,14.40
2022-11-02T05:36:09.305Z,14.50
2022-11-02T05:41:06.083Z,14.60
2022-11-02T05:43:36.673Z,14.50
2022-11-02T05:46:05.955Z,14.40
2022-11-02T05:48:33.482Z,14.40
2022-11-02T05:51:02.942Z,14.40
2022-11-02T05:53:37.440Z,14.30
2022-11-02T05:56:07.048Z,14.30
2022-11-02T05:58:34.616Z,14.30
2022-11-02T06:01:04.239Z,14.20
2022-11-02T06:03:32.199Z,14.20
2022-11-02T06:06:04.781Z,14.10
2022-11-02T06:08:36.147Z,14.10
2022-11-02T06:11:11.321Z,14.10
2022-11-02T06:13:38.931Z,14.10
2022-11-02T06:16:09.897Z,14.10
2022-11-02T06:18:38.471Z,14.10
2022-11-02T06:21:06.143Z,14.10
2022-11-02T06:23:33.280Z,14.10
2022-11-02T06:26:01.334Z,14.10
2022-11-02T06:28:29.513Z,14.10
2022-11-02T06:30:57.170Z,14.10
2022-11-02T06:33:24.499Z,14.00
2022-11-02T06:35:53.205Z,14.10
2022-11-02T06:38:22.219Z,14.10
2022-11-02T06:41:15.770Z,14.00
2022-11-02T06:43:42.872Z,14.00
2022-11-02T06:46:10.076Z,13.90
2022-11-02T06:48:37.601Z,13.90
2022-11-02T06:51:06.219Z,14.00
2022-11-02T06:53:33.599Z,14.00
2022-11-02T06:56:01.033Z,13.90
2022-11-02T06:58:28.442Z,13.90
2022-11-02T07:01:03.604Z,13.90
2022-11-02T07:03:31.359Z,13.90
2022-11-02T07:05:58.522Z,13.90
2022-11-02T07:08:26.466Z,14.00
2022-11-02T07:10:53.933Z,13.80
2022-11-02T07:13:21.401Z,13.80
2022-11-02T07:15:52.516Z,13.80
2022-11-02T07:18:19.673Z,13.80
2022-11-02T07:20:46.885Z,13.70
2022-11-02T07:23:14.076Z,13.70
2022-11-02T07:25:41.658Z,13.70
2022-11-02T07:28:08.798Z,13.70
2022-11-02T07:30:35.910Z,13.80
2022-11-02T07:33:03.397Z,13.80
2022-11-02T07:35:30.805Z,13.80
2022-11-02T07:38:02.437Z,13.80
2022-11-02T07:40:30.826Z,13.80
2022-11-02T07:43:00.096Z,13.80
2022-11-02T07:45:36.853Z,13.90
2022-11-02T07:48:04.099Z,13.90
2022-11-02T07:50:31.350Z,13.90
2022-11-02T07:52:58.808Z,13.90
2022-11-02T07:55:28.536Z,13.90
2022-11-02T07:57:58.133Z,13.90
2022-11-02T08:00:27.575Z,13.90
2022-11-02T08:02:56.083Z,14.00
2022-11-02T08:05:23.619Z,14.00
2022-11-02T08:08:02.184Z,14.00
2022-11-02T08:10:36.943Z,14.00
2022-11-02T08:13:08.614Z,14.00
2022-11-02T08:15:35.716Z,14.00
2022-11-02T08:18:14.980Z,13.90
2022-11-02T08:20:42.679Z,13.90
2022-11-02T08:23:10.985Z,14.10
2022-11-02T08:25:39.628Z,14.10
2022-11-02T08:28:08.405Z,14.20
2022-11-02T08:30:35.496Z,14.10
2022-11-02T08:33:08.213Z,14.00
2022-11-02T08:35:37.895Z,14.10
2022-11-02T08:38:05.643Z,14.10
2022-11-02T08:40:33.419Z,14.10
2022-11-02T08:43:02.691Z,14.30
2022-11-02T08:45:53.829Z,14.00
2022-11-02T08:48:18.410Z,14.20
2022-11-02T08:50:45.565Z,14.30
2022-11-02T08:53:12.550Z,14.30
2022-11-02T08:55:39.747Z,14.30
2022-11-02T08:58:07.594Z,14.40
2022-11-02T09:00:37.114Z,14.50
2022-11-02T09:03:08.166Z,14.50
2022-11-02T09:05:38.490Z,14.60
2022-11-02T09:08:08.857Z,14.70
2022-11-02T09:10:36.599Z,14.60
2022-11-02T09:13:07.311Z,14.60
2022-11-02T09:15:36.844Z,14.60
2022-11-02T09:18:05.486Z,14.60
2022-11-02T09:20:33.712Z,14.60
2022-11-02T09:23:01.061Z,14.70
2022-11-02T09:25:31.115Z,14.80
2022-11-02T09:27:58.417Z,14.90
2022-11-02T09:30:27.185Z,14.90
2022-11-02T09:33:03.698Z,14.80
2022-11-02T09:35:39.399Z,14.80
2022-11-02T09:38:07.024Z,14.90
2022-11-02T09:40:56.437Z,15.00
2022-11-02T09:43:40.784Z,15.10
2022-11-02T09:46:25.167Z,15.10
2022-11-02T09:48:59.968Z,15.20
2022-11-02T09:51:38.070Z,15.20
2022-11-02T09:54:25.748Z,15.30
2022-11-02T09:56:58.000Z,15.40
2022-11-02T09:59:26.815Z,15.40
2022-11-02T10:02:32.623Z,15.20
2022-11-02T10:05:27.426Z,15.20
2022-11-02T10:08:31.614Z,15.40
2022-11-02T10:11:08.394Z,15.60
2022-11-02T10:13:48.223Z,15.40
2022-11-02T10:16:24.617Z,15.50
2022-11-02T10:18:53.868Z,15.60
2022-11-02T10:21:27.753Z,15.70
2022-11-02T10:23:56.827Z,15.70
2022-11-02T10:26:29.235Z,15.80
2022-11-02T10:29:04.659Z,15.90
2022-11-02T10:31:34.166Z,15.90
2022-11-02T10:34:26.549Z,15.90
2022-11-02T10:36:59.717Z,15.80
2022-11-02T10:39:38.418Z,15.90
2022-11-02T10:42:18.668Z,15.80
2022-11-02T10:44:51.672Z,15.80
2022-11-02T10:47:27.482Z,15.80
2022-11-02T10:50:18.939Z,15.90
2022-11-02T10:52:46.706Z,16.10
2022-11-02T10:55:51.592Z,16.10
2022-11-02T10:58:21.532Z,16.30
2022-11-02T11:00:48.900Z,16.40
2022-11-02T11:03:18.201Z,16.40
2022-11-02T11:05:51.471Z,16.50
2022-11-02T11:08:59.741Z,16.60
2022-11-02T11:11:31.025Z,16.60
2022-11-02T11:16:55.980Z,16.60
2022-11-02T11:19:41.688Z,16.70
2022-11-02T11:28:30.545Z,17.00
2022-11-02T11:33:57.114Z,17.10
2022-11-02T11:36:31.319Z,17.20
2022-11-02T11:39:02.077Z,17.20
2022-11-02T11:41:31.496Z,17.30
2022-11-02T11:44:02.312Z,17.40
2022-11-02T11:46:48.972Z,17.50
2022-11-02T11:52:32.004Z,17.50
2022-11-02T11:55:01.829Z,17.40
2022-11-02T11:57:33.653Z,17.50
2022-11-02T12:00:05.043Z,17.50
2022-11-02T12:02:43.847Z,17.70
2022-11-02T12:05:12.840Z,17.80
2022-11-02T12:07:56.171Z,17.90
2022-11-02T12:10:38.877Z,17.90
2022-11-02T12:13:44.047Z,17.90
2022-11-02T12:16:23.077Z,17.90
2022-11-02T12:19:40.392Z,18.00
2022-11-02T12:22:17.642Z,18.00
2022-11-02T12:25:09.253Z,17.90
2022-11-02T12:27:52.331Z,18.10
2022-11-02T12:30:30.125Z,18.20
2022-11-02T12:33:22.851Z,18.20
2022-11-02T12:35:52.379Z,18.20
2022-11-02T12:38:43.598Z,18.30
2022-11-02T12:41:18.573Z,18.40
2022-11-02T12:43:51.640Z,18.30
2022-11-02T12:46:38.958Z,18.40
2022-11-02T12:49:38.310Z,18.40
2022-11-02T12:52:33.745Z,18.50
2022-11-02T12:55:05.223Z,18.50
2022-11-02T12:57:37.243Z,18.40
2022-11-02T13:00:22.857Z,18.40
2022-11-02T13:03:16.599Z,18.30
2022-11-02T13:05:50.747Z,18.30
2022-11-02T13:08:29.635Z,18.40
2022-11-02T13:11:02.643Z,18.40
2022-11-02T13:13:39.162Z,18.50
2022-11-02T13:16:09.556Z,18.50
2022-11-02T13:18:51.187Z,18.60
2022-11-02T13:21:41.248Z,18.70
2022-11-02T13:24:18.653Z,18.60
2022-11-02T13:26:57.172Z,18.40
2022-11-02T13:29:47.696Z,18.40
2022-11-02T13:32:33.645Z,18.50
2022-11-02T13:35:18.200Z,18.60
2022-11-02T13:37:52.922Z,18.70
2022-11-02T13:40:27.883Z,18.60
2022-11-02T13:43:25.874Z,18.60
2022-11-02T13:46:31.533Z,18.60
2022-11-02T13:49:17.830Z,18.60
2022-11-02T13:51:51.869Z,18.50
2022-11-02T13:54:33.372Z,18.30
2022-11-02T13:57:01.512Z,18.20
2022-11-02T13:59:42.187Z,18.10
2022-11-02T14:02:17.120Z,18.00
2022-11-02T14:04:46.075Z,17.90
2022-11-02T14:07:33.403Z,17.90
2022-11-02T14:10:18.776Z,17.90
2022-11-02T14:12:49.532Z,17.90
2022-11-02T14:15:16.582Z,18.00
2022-11-02T14:17:56.474Z,18.00
2022-11-02T14:20:34.107Z,18.00
2022-11-02T14:23:12.514Z,18.10
2022-11-02T14:25:50.601Z,18.10
2022-11-02T14:28:30.313Z,18.30
2022-11-02T14:31:06.052Z,18.30
2022-11-02T14:33:51.359Z,18.40
2022-11-02T14:36:26.711Z,18.50
2022-11-02T14:38:59.874Z,18.50
2022-11-02T14:41:50.901Z,18.50
2022-11-02T14:44:51.413Z,18.50
2022-11-02T14:47:19.889Z,18.60
2022-11-02T14:49:52.347Z,18.60
2022-11-02T14:52:32.127Z,18.60
2022-11-02T14:55:05.382Z,18.50
2022-11-02T14:57:50.051Z,18.50
2022-11-02T15:00:18.936Z,18.50
2022-11-02T15:02:46.749Z,18.50
2022-11-02T15:05:24.473Z,18.40
2022-11-02T15:08:02.557Z,18.40
2022-11-02T15:10:32.209Z,18.50
2022-11-02T15:13:20.701Z,18.60
2022-11-02T15:15:50.666Z,18.60
2022-11-02T15:18:31.949Z,18.50
2022-11-02T15:21:10.885Z,18.40
2022-11-02T15:23:56.833Z,18.40
2022-11-02T15:26:29.312Z,18.40
2022-11-02T15:29:00.310Z,18.30
2022-11-02T15:31:28.725Z,18.20
2022-11-02T15:33:59.795Z,18.20
2022-11-02T15:36:38.873Z,18.10
2022-11-02T15:39:11.377Z,18.10
2022-11-02T15:41:49.470Z,18.20
2022-11-02T15:44:32.775Z,18.20
2022-11-02T15:47:52.298Z,18.10
2022-11-02T15:50:43.017Z,17.90
2022-11-02T15:53:24.000Z,17.60
2022-11-02T15:56:09.891Z,17.50
2022-11-02T15:58:39.759Z,17.20
2022-11-02T16:01:15.924Z,17.00
2022-11-02T16:03:58.913Z,16.90
2022-11-02T16:06:31.661Z,16.70
2022-11-02T16:09:03.364Z,16.60
2022-11-02T16:11:30.477Z,16.50
2022-11-02T16:14:18.058Z,16.40
2022-11-02T16:16:49.741Z,16.30
2022-11-02T16:19:21.632Z,16.10
2022-11-02T16:21:49.859Z,16.00
2022-11-02T16:24:18.135Z,16.00
2022-11-02T16:26:46.557Z,15.80
2022-11-02T16:29:31.501Z,15.80
2022-11-02T16:31:58.918Z,15.70
2022-11-02T16:34:33.148Z,15.50
2022-11-02T16:37:10.126Z,15.40
2022-11-02T16:39:42.126Z,15.40
2022-11-02T16:42:23.103Z,15.20
2022-11-02T16:45:01.237Z,15.10
2022-11-02T16:47:38.238Z,15.10
2022-11-02T16:50:23.119Z,15.00
2022-11-02T16:52:58.895Z,15.00
2022-11-02T16:55:39.442Z,14.90
2022-11-02T16:58:13.646Z,14.80
2022-11-02T17:00:52.642Z,14.80
2022-11-02T17:03:24.707Z,14.70
2022-11-02T17:05:53.027Z,14.60
2022-11-02T17:08:28.318Z,14.60
2022-11-02T17:10:57.606Z,14.50
2022-11-02T17:13:27.033Z,14.50
2022-11-02T17:15:56.925Z,14.40
2022-11-02T17:18:29.203Z,14.40
2022-11-02T17:21:14.059Z,14.30
2022-11-02T17:23:45.535Z,14.30
2022-11-02T17:26:24.921Z,14.20
2022-11-02T17:28:55.098Z,14.10
2022-11-02T17:31:24.733Z,14.10
2022-11-02T17:33:52.270Z,14.10
2022-11-02T17:36:19.669Z,14.00
2022-11-02T17:38:46.781Z,14.00
2022-11-02T17:41:35.912Z,14.00
2022-11-02T17:44:03.389Z,13.90
2022-11-02T17:46:30.747Z,13.90
2022-11-02T17:48:57.805Z,13.90
2022-11-02T17:51:25.921Z,13.90
2022-11-02T17:53:53.089Z,13.80
2022-11-02T17:56:20.103Z,13.80
2022-11-02T17:58:47.030Z,13.90
2022-11-02T18:01:14.364Z,13.80
2022-11-02T18:03:42.068Z,13.80
2022-11-02T18:06:09.038Z,13.80
2022-11-02T18:08:56.234Z,13.80
2022-11-02T18:11:26.197Z,13.80
2022-11-02T18:13:53.708Z,13.80
2022-11-02T18:16:20.841Z,13.80
2022-11-02T18:18:47.956Z,13.80
2022-11-02T18:21:15.108Z,13.60
2022-11-02T18:23:42.033Z,13.80
2022-11-02T18:26:12.790Z,13.90
2022-11-02T18:28:40.133Z,13.90
2022-11-02T18:31:07.993Z,13.90
2022-11-02T18:33:35.243Z,13.90
2022-11-02T18:36:07.156Z,13.90
2022-11-02T18:38:34.741Z,14.00
2022-11-02T18:41:26.910Z,14.10
2022-11-02T18:44:02.181Z,14.00
2022-11-02T18:46:32.162Z,13.90
2022-11-02T18:48:59.567Z,13.90
2022-11-02T18:51:26.945Z,14.00
2022-11-02T18:54:04.473Z,14.00
2022-11-02T18:56:31.729Z,14.00
2022-11-02T18:58:59.046Z,14.10
2022-11-02T19:01:27.104Z,14.10
2022-11-02T19:03:56.835Z,14.10
2022-11-02T19:06:43.093Z,14.10
2022-11-02T19:09:18.220Z,14.10
2022-11-02T19:11:54.329Z,14.10
2022-11-02T19:14:23.307Z,14.10
2022-11-02T19:16:50.353Z,14.10
2022-11-02T19:19:17.271Z,14.10
2022-11-02T19:21:44.316Z,14.10
2022-11-02T19:24:11.577Z,14.00
2022-11-02T19:26:39.043Z,14.00
2022-11-02T19:29:07.051Z,14.00
2022-11-02T19:31:35.291Z,14.10
2022-11-02T19:34:02.750Z,14.10
2022-11-02T19:36:29.830Z,14.10
2022-11-02T19:38:58.441Z,14.10
2022-11-02T19:41:25.897Z,14.00
2022-11-02T19:43:53.249Z,14.00
2022-11-02T19:46:22.370Z,14.10
2022-11-02T19:48:50.139Z,14.00
2022-11-02T19:51:22.181Z,14.00
2022-11-02T19:53:54.203Z,14.10
2022-11-02T19:56:22.391Z,14.10
2022-11-02T19:58:51.032Z,14.00
2022-11-02T20:01:20.714Z,14.00
2022-11-02T20:03:48.210Z,13.90
2022-11-02T20:06:23.525Z,14.00
2022-11-02T20:08:55.768Z,14.00
2022-11-02T20:11:24.337Z,14.00
2022-11-02T20:13:52.153Z,13.90
2022-11-02T20:16:20.048Z,13.90
2022-11-02T20:18:50.356Z,14.00
2022-11-02T20:21:20.376Z,14.00
2022-11-02T20:23:48.188Z,14.00
2022-11-02T20:26:23.982Z,13.90
2022-11-02T20:28:52.138Z,13.90
2022-11-02T20:31:24.108Z,14.00
2022-11-02T20:33:51.528Z,14.10
2022-11-02T20:36:18.641Z,14.00
2022-11-02T20:38:46.129Z,14.10
2022-11-02T20:41:15.352Z,14.10
2022-11-02T20:43:44.757Z,14.00
2022-11-02T20:46:36.549Z,14.00
2022-11-02T20:49:13.934Z,14.00
2022-11-02T20:51:52.514Z,14.00
2022-11-02T20:54:20.279Z,14.10
2022-11-02T20:56:48.250Z,14.10
2022-11-02T20:59:15.810Z,14.10
2022-11-02T21:01:43.094Z,14.00
2022-11-02T21:04:15.267Z,14.00
2022-11-02T21:06:46.790Z,13.90
2022-11-02T21:09:13.662Z,13.90
2022-11-02T21:11:59.127Z,13.90
2022-11-02T21:14:26.264Z,13.90
2022-11-02T21:16:53.277Z,13.90
2022-11-02T21:19:20.523Z,13.90
2022-11-02T21:21:47.616Z,14.00
2022-11-02T21:24:14.738Z,14.10
2022-11-02T21:26:42.124Z,14.10
2022-11-02T21:29:10.046Z,14.00
2022-11-02T21:31:37.456Z,14.00
2022-11-02T21:34:05.017Z,14.00
2022-11-02T21:36:32.308Z,13.90
2022-11-02T21:38:59.311Z,14.00
2022-11-02T21:41:29.385Z,14.00
2022-11-02T21:43:56.965Z,14.00
2022-11-02T21:46:25.715Z,14.00
2022-11-02T21:48:54.647Z,14.10
2022-11-02T21:51:22.898Z,14.00
2022-11-02T21:53:50.804Z,14.00
2022-11-02T21:56:25.592Z,14.00
2022-11-02T21:58:53.910Z,14.10
2022-11-02T22:01:45.540Z,14.10
2022-11-02T22:04:15.844Z,14.10
2022-11-02T22:06:43.314Z,14.10
2022-11-02T22:09:12.631Z,14.20
2022-11-02T22:11:40.386Z,14.20
2022-11-02T22:14:07.471Z,14.40
2022-11-02T22:16:43.008Z,14.30
2022-11-02T22:19:14.487Z,14.20
2022-11-02T22:21:43.633Z,14.20
2022-11-02T22:24:11.411Z,14.20
2022-11-02T22:26:39.618Z,14.20
2022-11-02T22:29:07.615Z,14.20
2022-11-02T22:31:38.722Z,14.30
2022-11-02T22:34:08.339Z,14.30
2022-11-02T22:36:37.268Z,14.30
2022-11-02T22:39:06.182Z,14.30
2022-11-02T22:41:40.320Z,14.40
2022-11-02T22:44:11.804Z,14.30
2022-11-02T22:46:44.221Z,14.30
2022-11-02T22:49:14.027Z,14.30
2022-11-02T22:51:50.813Z,14.40
2022-11-02T22:54:19.690Z,14.40
2022-11-02T22:56:48.491Z,14.40
2022-11-02T22:59:16.477Z,14.40
2022-11-02T23:01:43.929Z,14.40
2022-11-02T23:04:12.251Z,14.40
2022-11-02T23:06:39.552Z,14.40
2022-11-02T23:09:07.280Z,14.40
2022-11-02T23:11:37.356Z,14.30
2022-11-02T23:14:12.909Z,14.30
2022-11-02T23:16:47.152Z,14.30
2022-11-02T23:19:27.223Z,14.30
2022-11-02T23:22:15.231Z,14.20
2022-11-02T23:25:03.559Z,14.30
2022-11-02T23:27:32.171Z,14.30
2022-11-02T23:30:18.054Z,14.20
2022-11-02T23:32:45.259Z,14.20
2022-11-02T23:35:30.662Z,14.10
2022-11-02T23:38:03.404Z,14.20
2022-11-02T23:40:30.678Z,14.10
2022-11-02T23:42:57.688Z,14.20
2022-11-02T23:45:24.666Z,14.20
2022-11-02T23:47:57.493Z,14.20
2022-11-02T23:50:44.893Z,14.30
2022-11-02T23:53:32.038Z,14.30
2022-11-02T23:56:18.714Z,14.20
2022-11-02T23:58:46.500Z,14.30
